createdAt,value
2018-06-03T00:01:38.009Z,19.40
2018-06-03T00:04:15.203Z,19.50
2018-06-03T00:06:46.583Z,19.50
2018-06-03T00:09:33.376Z,19.50
2018-06-03T00:12:19.957Z,19.50
2018-06-03T00:14:59.188Z,19.50
2018-06-03T00:17:31.549Z,19.50
2018-06-03T00:20:08.286Z,19.60
2018-06-03T00:22:56.925Z,19.60
2018-06-03T00:25:37.840Z,19.60
2018-06-03T00:28:09.521Z,19.60
2018-06-03T00:30:58.884Z,19.50
2018-06-03T00:41:10.303Z,19.50
2018-06-03T00:46:44.493Z,19.40
2018-06-03T00:49:18.595Z,19.40
2018-06-03T00:51:59.223Z,19.40
2018-06-03T00:55:17.372Z,19.30
2018-06-03T00:57:57.889Z,19.30
2018-06-03T01:00:31.382Z,19.30
2018-06-03T01:03:14.329Z,19.30
2018-06-03T01:05:51.591Z,19.30
2018-06-03T01:08:24.616Z,19.30
2018-06-03T01:11:03.658Z,19.30
2018-06-03T01:13:46.122Z,19.30
2018-06-03T01:16:17.028Z,19.30
2018-06-03T01:18:57.978Z,19.20
2018-06-03T01:21:34.665Z,19.20
2018-06-03T01:24:09.541Z,19.20
2018-06-03T01:26:43.566Z,19.10
2018-06-03T01:29:17.654Z,19.10
2018-06-03T01:31:51.943Z,19.20
2018-06-03T01:34:23.779Z,19.20
2018-06-03T01:36:58.421Z,19.20
2018-06-03T01:39:29.885Z,19.10
2018-06-03T01:42:00.354Z,19.10
2018-06-03T01:44:32.469Z,19.10
2018-06-03T01:47:10.457Z,19.10
2018-06-03T01:49:42.455Z,19.10
2018-06-03T01:52:13.533Z,19.20
2018-06-03T01:54:44.857Z,19.10
2018-06-03T01:57:16.607Z,19.10
2018-06-03T01:59:54.755Z,19.10
2018-06-03T02:02:29.062Z,19.00
2018-06-03T02:04:59.319Z,19.10
2018-06-03T02:07:29.552Z,19.10
2018-06-03T02:10:02.299Z,19.00
2018-06-03T02:12:36.890Z,19.00
2018-06-03T02:16:38.502Z,18.90
2018-06-03T02:19:10.291Z,18.90
2018-06-03T02:21:45.076Z,18.90
2018-06-03T02:24:17.350Z,18.90
2018-06-03T02:26:48.380Z,18.80
2018-06-03T02:29:19.589Z,18.80
2018-06-03T02:31:50.778Z,18.80
2018-06-03T02:34:26.489Z,18.80
2018-06-03T02:36:56.895Z,18.80
2018-06-03T02:39:27.152Z,18.80
2018-06-03T02:41:57.391Z,18.80
2018-06-03T02:44:29.943Z,18.80
2018-06-03T02:47:31.423Z,18.80
2018-06-03T02:50:06.824Z,18.60
2018-06-03T02:52:37.887Z,18.60
2018-06-03T02:55:07.974Z,18.70
2018-06-03T02:57:38.838Z,18.70
2018-06-03T03:00:10.670Z,18.70
2018-06-03T03:02:40.834Z,18.70
2018-06-03T03:05:10.988Z,18.70
2018-06-03T03:07:41.256Z,18.70
2018-06-03T03:10:11.510Z,18.70
2018-06-03T03:12:41.611Z,18.70
2018-06-03T03:15:11.415Z,18.70
2018-06-03T03:17:41.440Z,18.70
2018-06-03T03:20:13.992Z,18.70
2018-06-03T03:22:45.636Z,18.70
2018-06-03T03:25:16.243Z,18.60
2018-06-03T03:27:48.726Z,18.70
2018-06-03T03:30:20.140Z,18.70
2018-06-03T03:32:52.582Z,18.60
2018-06-03T03:35:22.960Z,18.60
2018-06-03T03:37:52.724Z,18.60
2018-06-03T03:40:22.560Z,18.60
2018-06-03T03:42:52.195Z,18.60
2018-06-03T03:45:22.425Z,18.50
2018-06-03T03:47:51.920Z,18.50
2018-06-03T03:50:23.063Z,18.40
2018-06-03T03:52:52.454Z,18.40
2018-06-03T03:55:22.285Z,18.40
2018-06-03T03:57:53.205Z,18.40
2018-06-03T04:00:22.591Z,18.40
2018-06-03T04:02:52.133Z,18.40
2018-06-03T04:05:22.208Z,18.50
2018-06-03T04:07:52.682Z,18.50
2018-06-03T04:10:22.119Z,18.50
2018-06-03T04:12:51.812Z,18.40
2018-06-03T04:15:21.912Z,18.40
2018-06-03T04:17:51.549Z,18.40
2018-06-03T04:20:21.009Z,18.30
2018-06-03T04:22:51.953Z,18.40
2018-06-03T04:25:21.551Z,18.40
2018-06-03T04:27:51.914Z,18.40
2018-06-03T04:30:22.977Z,18.30
2018-06-03T04:32:53.581Z,18.30
2018-06-03T04:35:24.327Z,18.20
2018-06-03T04:37:54.570Z,18.20
2018-06-03T04:40:26.774Z,18.20
2018-06-03T04:42:57.634Z,18.20
2018-06-03T04:45:29.724Z,18.10
2018-06-03T04:48:00.719Z,18.20
2018-06-03T04:50:30.459Z,18.20
2018-06-03T04:53:01.419Z,18.20
2018-06-03T04:55:32.986Z,18.30
2018-06-03T04:58:03.254Z,18.30
2018-06-03T05:00:33.305Z,18.30
2018-06-03T05:03:02.858Z,18.40
2018-06-03T05:05:32.483Z,18.40
2018-06-03T05:08:03.086Z,18.40
2018-06-03T05:10:32.656Z,18.40
2018-06-03T05:13:02.311Z,18.40
2018-06-03T05:15:31.952Z,18.50
2018-06-03T05:18:01.562Z,18.60
2018-06-03T05:20:31.340Z,18.70
2018-06-03T05:23:01.034Z,18.80
2018-06-03T05:25:30.402Z,18.80
2018-06-03T05:27:59.824Z,18.80
2018-06-03T05:30:29.419Z,18.90
2018-06-03T05:33:00.085Z,18.90
2018-06-03T05:35:30.368Z,18.90
2018-06-03T05:38:00.396Z,18.90
2018-06-03T05:40:30.193Z,19.00
2018-06-03T05:42:59.945Z,19.10
2018-06-03T05:45:32.135Z,19.20
2018-06-03T05:48:02.622Z,19.50
2018-06-03T05:50:32.390Z,19.50
2018-06-03T05:53:04.433Z,20.10
2018-06-03T05:55:35.024Z,20.30
2018-06-03T05:58:13.283Z,20.30
2018-06-03T06:00:43.105Z,20.40
2018-06-03T06:03:12.490Z,20.40
2018-06-03T06:05:42.510Z,20.30
2018-06-03T06:08:12.544Z,20.40
2018-06-03T06:10:43.243Z,20.30
2018-06-03T06:13:18.879Z,20.30
2018-06-03T06:16:09.682Z,20.10
2018-06-03T06:18:40.223Z,20.10
2018-06-03T06:21:13.299Z,20.50
2018-06-03T06:23:45.421Z,21.40
2018-06-03T06:26:15.375Z,21.40
2018-06-03T06:28:46.170Z,21.50
2018-06-03T06:31:16.267Z,21.40
2018-06-03T06:33:46.590Z,21.50
2018-06-03T06:36:26.645Z,21.50
2018-06-03T06:38:57.010Z,21.50
2018-06-03T06:41:26.751Z,21.60
2018-06-03T06:44:01.159Z,21.90
2018-06-03T06:46:31.310Z,21.70
2018-06-03T06:49:03.244Z,21.50
2018-06-03T06:51:33.498Z,21.70
2018-06-03T06:54:03.408Z,22.30
2018-06-03T06:56:35.180Z,22.60
2018-06-03T06:59:05.976Z,22.90
2018-06-03T07:01:36.352Z,24.10
2018-06-03T07:04:07.967Z,24.10
2018-06-03T07:06:38.081Z,23.00
2018-06-03T07:09:08.584Z,22.20
2018-06-03T07:11:39.538Z,21.90
2018-06-03T07:14:10.714Z,21.50
2018-06-03T07:16:42.186Z,21.20
2018-06-03T07:22:17.510Z,21.10
2018-06-03T07:24:54.485Z,21.10
2018-06-03T07:27:25.903Z,21.20
2018-06-03T07:29:56.421Z,21.20
2018-06-03T07:32:31.093Z,21.20
2018-06-03T07:35:14.596Z,21.50
2018-06-03T07:37:59.314Z,21.50
2018-06-03T07:40:30.909Z,21.60
2018-06-03T07:43:31.985Z,21.40
2018-06-03T07:46:38.677Z,21.40
2018-06-03T07:49:44.399Z,21.50
2018-06-03T07:52:17.104Z,21.20
2018-06-03T07:54:49.082Z,21.20
2018-06-03T07:57:45.610Z,21.30
2018-06-03T08:00:27.034Z,21.50
2018-06-03T08:03:03.867Z,21.70
2018-06-03T08:05:35.134Z,23.00
2018-06-03T08:08:06.515Z,23.00
2018-06-03T08:10:39.789Z,23.80
2018-06-03T08:13:11.430Z,24.20
2018-06-03T08:15:43.280Z,24.60
2018-06-03T08:18:32.452Z,24.60
2018-06-03T08:21:08.711Z,25.10
2018-06-03T08:23:40.459Z,25.10
2018-06-03T08:26:14.220Z,25.50
2018-06-03T08:28:46.099Z,25.30
2018-06-03T08:31:17.177Z,27.70
2018-06-03T08:33:48.017Z,27.50
2018-06-03T08:39:05.793Z,28.70
2018-06-03T08:41:36.735Z,28.60
2018-06-03T08:44:15.421Z,28.70
2018-06-03T08:46:52.578Z,27.60
2018-06-03T08:49:34.008Z,27.60
2018-06-03T08:52:18.387Z,26.70
2018-06-03T08:54:54.835Z,26.70
2018-06-03T08:57:34.841Z,28.60
2018-06-03T09:03:33.303Z,26.00
2018-06-03T09:06:10.999Z,26.50
2018-06-03T09:08:54.801Z,27.80
2018-06-03T09:11:26.665Z,27.20
2018-06-03T09:13:57.267Z,26.50
2018-06-03T09:16:28.854Z,27.40
2018-06-03T09:19:09.522Z,28.90
2018-06-03T09:21:45.465Z,31.00
2018-06-03T09:24:14.975Z,31.20
2018-06-03T09:26:45.179Z,29.30
2018-06-03T09:29:19.386Z,27.90
2018-06-03T09:31:50.862Z,27.00
2018-06-03T09:34:23.843Z,26.30
2018-06-03T09:36:56.537Z,26.30
2018-06-03T09:39:29.215Z,25.90
2018-06-03T09:42:07.625Z,26.00
2018-06-03T09:44:46.448Z,26.00
2018-06-03T09:47:17.219Z,26.20
2018-06-03T09:49:50.948Z,26.00
2018-06-03T09:52:27.199Z,25.90
2018-06-03T09:54:58.083Z,25.90
2018-06-03T09:57:28.908Z,25.80
2018-06-03T09:59:59.945Z,25.50
2018-06-03T10:03:11.056Z,25.10
2018-06-03T10:05:48.403Z,24.90
2018-06-03T10:08:26.298Z,25.00
2018-06-03T10:10:57.000Z,25.00
2018-06-03T10:13:31.021Z,25.50
2018-06-03T10:16:05.664Z,25.50
2018-06-03T10:21:19.358Z,24.90
2018-06-03T10:23:50.529Z,24.70
2018-06-03T10:26:22.133Z,24.60
2018-06-03T10:28:51.949Z,24.70
2018-06-03T10:31:36.407Z,24.70
2018-06-03T10:34:13.701Z,24.90
2018-06-03T10:36:46.304Z,25.30
2018-06-03T10:39:21.338Z,25.30
2018-06-03T10:41:52.380Z,25.20
2018-06-03T10:44:29.317Z,25.50
2018-06-03T10:47:12.807Z,25.40
2018-06-03T10:49:51.015Z,25.60
2018-06-03T10:52:27.334Z,25.80
2018-06-03T10:57:46.946Z,26.60
2018-06-03T11:00:22.165Z,26.60
2018-06-03T11:03:21.377Z,26.70
2018-06-03T11:06:14.396Z,26.60
2018-06-03T11:09:54.432Z,27.00
2018-06-03T11:35:49.949Z,28.40
2018-06-03T11:42:55.165Z,27.60
2018-06-03T11:45:33.669Z,27.40
2018-06-03T11:48:11.325Z,27.60
2018-06-03T11:50:50.588Z,27.70
2018-06-03T11:53:29.254Z,27.60
2018-06-03T11:57:05.030Z,27.50
2018-06-03T12:03:13.649Z,27.00
2018-06-03T12:05:51.011Z,27.00
2018-06-03T12:08:28.769Z,26.90
2018-06-03T12:11:09.777Z,29.20
2018-06-03T12:16:54.153Z,30.60
2018-06-03T12:19:37.500Z,30.90
2018-06-03T12:22:22.670Z,32.80
2018-06-03T12:38:44.422Z,30.20
2018-06-03T12:41:19.902Z,29.20
2018-06-03T12:44:00.269Z,28.10
2018-06-03T12:46:33.039Z,27.20
2018-06-03T12:49:07.535Z,27.70
2018-06-03T12:52:15.337Z,27.70
2018-06-03T12:58:38.375Z,29.20
2018-06-03T13:05:04.016Z,29.20
2018-06-03T13:07:52.633Z,29.20
2018-06-03T13:10:25.725Z,29.20
2018-06-03T13:12:57.567Z,28.10
2018-06-03T13:15:32.339Z,28.20
2018-06-03T13:18:07.714Z,28.80
2018-06-03T13:20:51.674Z,29.80
2018-06-03T13:23:28.184Z,30.10
2018-06-03T13:26:08.698Z,30.10
2018-06-03T13:31:23.720Z,28.80
2018-06-03T13:34:01.086Z,28.20
2018-06-03T13:36:31.784Z,28.40
2018-06-03T13:39:01.431Z,28.20
2018-06-03T13:41:34.269Z,28.20
2018-06-03T13:44:05.679Z,28.20
2018-06-03T13:46:36.625Z,28.30
2018-06-03T13:49:15.470Z,28.20
2018-06-03T13:51:53.240Z,27.90
2018-06-03T13:54:26.840Z,28.00
2018-06-03T13:56:56.868Z,28.10
2018-06-03T13:59:26.597Z,27.80
2018-06-03T14:02:02.127Z,28.00
2018-06-03T14:04:34.665Z,28.10
2018-06-03T14:07:04.825Z,28.30
2018-06-03T14:09:35.414Z,28.20
2018-06-03T14:12:20.074Z,28.10
2018-06-03T14:14:56.563Z,27.60
2018-06-03T14:17:29.253Z,27.70
2018-06-03T14:20:00.243Z,27.90
2018-06-03T14:22:37.722Z,27.80
2018-06-03T14:25:08.439Z,27.80
2018-06-03T14:27:38.317Z,27.60
2018-06-03T14:30:09.718Z,27.60
2018-06-03T14:32:39.174Z,27.60
2018-06-03T14:35:08.899Z,27.40
2018-06-03T14:37:38.583Z,27.30
2018-06-03T14:40:08.752Z,27.30
2018-06-03T14:42:39.112Z,27.20
2018-06-03T14:45:09.831Z,27.20
2018-06-03T14:47:39.508Z,27.20
2018-06-03T14:50:09.898Z,27.00
2018-06-03T14:52:39.957Z,27.00
2018-06-03T14:55:11.612Z,27.10
2018-06-03T14:57:50.316Z,26.80
2018-06-03T15:00:23.389Z,26.70
2018-06-03T15:02:53.199Z,26.50
2018-06-03T15:05:24.672Z,26.50
2018-06-03T15:07:54.633Z,26.70
2018-06-03T15:10:24.569Z,26.80
2018-06-03T15:12:55.702Z,26.80
2018-06-03T15:15:27.087Z,26.60
2018-06-03T15:17:58.490Z,26.60
2018-06-03T15:20:28.351Z,26.50
2018-06-03T15:23:12.721Z,26.60
2018-06-03T15:25:45.993Z,26.60
2018-06-03T15:28:30.365Z,26.50
2018-06-03T15:31:06.550Z,26.50
2018-06-03T15:33:43.616Z,26.40
2018-06-03T15:36:14.034Z,26.40
2018-06-03T15:38:54.732Z,26.30
2018-06-03T15:41:44.892Z,26.30
2018-06-03T15:44:25.691Z,26.30
2018-06-03T15:47:00.024Z,26.30
2018-06-03T15:49:30.125Z,26.40
2018-06-03T15:52:02.302Z,26.30
2018-06-03T15:54:31.840Z,26.40
2018-06-03T15:57:03.811Z,26.60
2018-06-03T15:59:33.476Z,26.70
2018-06-03T16:02:03.753Z,26.70
2018-06-03T16:04:33.133Z,26.70
2018-06-03T16:07:04.220Z,26.50
2018-06-03T16:09:33.962Z,26.50
2018-06-03T16:12:03.140Z,26.60
2018-06-03T16:14:32.541Z,26.60
2018-06-03T16:17:02.035Z,26.70
2018-06-03T16:19:35.277Z,26.60
2018-06-03T16:22:07.164Z,26.60
2018-06-03T16:24:36.564Z,26.60
2018-06-03T16:27:09.983Z,26.50
2018-06-03T16:30:25.163Z,26.20
2018-06-03T16:32:59.514Z,26.10
2018-06-03T16:35:30.275Z,26.10
2018-06-03T16:38:01.583Z,26.10
2018-06-03T16:40:32.081Z,26.20
2018-06-03T16:43:06.279Z,26.20
2018-06-03T16:45:43.270Z,26.30
2018-06-03T16:48:21.027Z,26.30
2018-06-03T16:51:16.035Z,26.20
2018-06-03T16:54:02.554Z,26.20
2018-06-03T16:56:45.936Z,26.30
2018-06-03T16:59:23.048Z,26.30
2018-06-03T17:02:04.697Z,26.40
2018-06-03T17:04:40.679Z,26.40
2018-06-03T17:07:36.671Z,26.50
2018-06-03T17:10:13.406Z,26.40
2018-06-03T17:12:47.034Z,26.20
2018-06-03T17:15:21.549Z,26.20
2018-06-03T17:18:54.820Z,26.20
2018-06-03T17:21:24.447Z,26.30
2018-06-03T17:23:53.936Z,26.30
2018-06-03T17:26:23.638Z,26.30
2018-06-03T17:28:53.063Z,26.30
2018-06-03T17:31:23.491Z,26.10
2018-06-03T17:33:52.915Z,26.00
2018-06-03T17:36:24.307Z,26.00
2018-06-03T17:38:55.440Z,26.00
2018-06-03T17:41:25.359Z,26.00
2018-06-03T17:43:55.134Z,25.90
2018-06-03T17:46:25.844Z,25.70
2018-06-03T17:49:03.264Z,25.60
2018-06-03T17:51:33.537Z,25.50
2018-06-03T17:54:08.977Z,25.40
2018-06-03T17:56:39.082Z,25.40
2018-06-03T17:59:09.651Z,25.40
2018-06-03T18:01:39.282Z,25.30
2018-06-03T18:04:09.851Z,25.20
2018-06-03T18:06:39.545Z,25.20
2018-06-03T18:09:09.582Z,25.10
2018-06-03T18:11:39.297Z,25.10
2018-06-03T18:14:13.310Z,25.10
2018-06-03T18:16:43.155Z,25.10
2018-06-03T18:19:13.533Z,25.00
2018-06-03T18:21:43.692Z,25.00
2018-06-03T18:24:14.202Z,24.90
2018-06-03T18:26:44.042Z,24.90
2018-06-03T18:29:14.955Z,24.90
2018-06-03T18:31:44.691Z,24.80
2018-06-03T18:34:14.325Z,24.70
2018-06-03T18:36:48.578Z,24.60
2018-06-03T18:39:21.548Z,24.60
2018-06-03T18:41:51.232Z,24.60
2018-06-03T18:44:29.171Z,24.60
2018-06-03T18:46:58.587Z,24.50
2018-06-03T18:49:43.389Z,24.40
2018-06-03T18:52:13.332Z,24.40
2018-06-03T18:54:45.204Z,24.40
2018-06-03T18:57:30.369Z,24.30
2018-06-03T19:02:49.031Z,24.20
2018-06-03T19:05:30.810Z,24.20
2018-06-03T19:08:03.044Z,24.20
2018-06-03T19:10:46.714Z,24.30
2018-06-03T19:13:27.357Z,24.30
2018-06-03T19:15:58.578Z,24.30
2018-06-03T19:18:28.726Z,24.20
2018-06-03T19:21:00.853Z,24.30
2018-06-03T19:23:31.831Z,24.40
2018-06-03T19:26:03.779Z,24.50
2018-06-03T19:28:34.816Z,24.50
2018-06-03T19:31:13.723Z,24.40
2018-06-03T19:34:01.475Z,24.40
2018-06-03T19:36:38.022Z,24.40
2018-06-03T19:42:17.908Z,24.40
2018-06-03T19:44:57.614Z,24.40
2018-06-03T19:47:28.053Z,24.20
2018-06-03T19:49:57.833Z,24.20
2018-06-03T19:52:33.975Z,24.10
2018-06-03T19:57:59.969Z,24.30
2018-06-03T20:03:08.990Z,24.40
2018-06-03T20:08:08.018Z,24.10
2018-06-03T20:10:39.574Z,24.20
2018-06-03T20:13:22.987Z,24.10
2018-06-03T20:15:56.969Z,24.10
2018-06-03T20:18:49.782Z,24.10
2018-06-03T20:21:46.279Z,24.10
2018-06-03T20:24:49.856Z,24.00
2018-06-03T20:27:36.220Z,24.00
2018-06-03T20:30:22.257Z,24.00
2018-06-03T20:32:58.891Z,23.90
2018-06-03T20:35:33.835Z,24.00
2018-06-03T20:38:11.330Z,23.90
2018-06-03T20:40:42.079Z,23.90
2018-06-03T20:43:16.624Z,23.90
2018-06-03T20:45:46.431Z,23.90
2018-06-03T20:48:16.049Z,23.90
2018-06-03T20:50:48.914Z,23.80
2018-06-03T20:53:19.398Z,23.80
2018-06-03T20:55:48.993Z,23.70
2018-06-03T20:58:18.370Z,23.80
2018-06-03T21:00:52.543Z,23.80
2018-06-03T21:13:42.004Z,23.60
2018-06-03T21:16:13.005Z,23.60
2018-06-03T21:18:42.522Z,23.50
2018-06-03T21:21:19.009Z,23.40
2018-06-03T21:23:51.680Z,23.30
2018-06-03T21:26:24.859Z,23.20
2018-06-03T21:28:55.380Z,23.10
2018-06-03T21:31:31.606Z,22.70
2018-06-03T21:34:13.796Z,22.80
2018-06-03T21:36:45.614Z,22.60
2018-06-03T21:39:25.170Z,22.60
2018-06-03T21:41:55.753Z,22.60
2018-06-03T21:44:28.807Z,22.40
2018-06-03T21:46:58.858Z,22.40
2018-06-03T21:49:28.883Z,22.30
2018-06-03T21:52:00.352Z,22.20
2018-06-03T21:54:32.319Z,22.00
2018-06-03T21:57:14.589Z,21.90
2018-06-03T21:59:48.613Z,21.90
2018-06-03T22:02:18.768Z,21.80
2018-06-03T22:04:48.785Z,20.20
2018-06-03T22:12:38.136Z,21.60
2018-06-03T22:15:13.685Z,21.60
2018-06-03T22:17:52.053Z,21.50
2018-06-03T22:20:25.726Z,21.50
2018-06-03T22:23:06.760Z,21.40
2018-06-03T22:25:36.982Z,21.40
2018-06-03T22:28:13.741Z,21.30
2018-06-03T22:30:45.672Z,21.20
2018-06-03T22:33:15.042Z,21.00
2018-06-03T22:35:44.270Z,18.60
2018-06-03T22:38:15.551Z,21.10
2018-06-03T22:40:46.557Z,21.10
2018-06-03T22:43:17.800Z,21.00
2018-06-03T22:45:47.210Z,20.10
2018-06-03T22:48:21.754Z,20.90
2018-06-03T22:50:51.154Z,20.80
2018-06-03T22:53:20.423Z,20.80
2018-06-03T22:55:49.724Z,20.80
2018-06-03T22:58:19.181Z,20.80
2018-06-03T23:00:50.948Z,20.70
2018-06-03T23:05:54.335Z,20.70
2018-06-03T23:08:24.680Z,20.60
2018-06-03T23:10:54.121Z,20.60
2018-06-03T23:13:23.713Z,20.60
2018-06-03T23:15:53.701Z,20.60
2018-06-03T23:18:25.007Z,20.60
2018-06-03T23:21:00.875Z,20.60
2018-06-03T23:23:30.354Z,20.60
2018-06-03T23:25:59.768Z,20.60
2018-06-03T23:31:09.974Z,20.50
2018-06-03T23:33:39.523Z,20.50
2018-06-03T23:36:08.819Z,20.50
2018-06-03T23:38:38.095Z,20.40
2018-06-03T23:41:07.533Z,20.30
2018-06-03T23:43:37.197Z,20.30
2018-06-03T23:46:06.523Z,20.30
2018-06-03T23:48:35.817Z,20.30
2018-06-03T23:51:17.416Z,20.30
2018-06-03T23:53:47.746Z,20.20
2018-06-03T23:56:22.497Z,20.20
